Time;durP1;ratioP1;P1;durP2;ratioP2;P2;SDS_P1;SDS_P2;PMS_P1;PMS_P2;Temp;Humidity;BMP_temperature;BMP_pressure;BME280_temperature;BME280_humidity;BME280_pressure;Samples;Min_cycle;Max_cycle;Signal;HPM_P1;HPM_P2
2020/12/14 00:00:12;;;;;;;6.32;1.88;;;;;;;6.75;75.93;99393.16;5075819;28;20048;-71
2020/12/14 00:02:39;;;;;;;6.00;1.60;;;;;;;6.74;75.80;99386.97;5075964;28;20056;-73
2020/12/14 00:05:07;;;;;;;6.22;2.05;;;;;;;6.75;76.31;99383.38;5075944;28;20052;-71
2020/12/14 00:07:33;;;;;;;7.63;2.03;;;;;;;6.70;76.79;99369.50;5075477;28;20109;-72
2020/12/14 00:10:01;;;;;;;5.30;1.80;;;;;;;6.81;76.57;99387.47;5075532;28;20064;-71
2020/12/14 00:12:28;;;;;;;8.65;2.22;;;;;;;6.75;76.54;99374.56;5075749;28;20101;-72
2020/12/14 00:14:55;;;;;;;6.70;2.05;;;;;;;6.77;76.93;99376.16;5075513;28;20455;-71
2020/12/14 00:17:21;;;;;;;4.95;1.90;;;;;;;6.78;76.57;99374.38;5074183;28;20437;-71
2020/12/14 00:19:48;;;;;;;7.22;1.90;;;;;;;6.75;77.11;99366.63;5075792;28;20063;-71
2020/12/14 00:22:14;;;;;;;5.72;1.83;;;;;;;6.77;76.94;99383.28;5074349;28;20056;-71
2020/12/14 00:24:41;;;;;;;9.70;2.03;;;;;;;6.78;77.15;99390.28;5074358;28;20102;-70
2020/12/14 00:27:07;;;;;;;8.68;2.13;;;;;;;6.74;77.04;99388.75;5075231;28;20060;-72
2020/12/14 00:29:34;;;;;;;8.45;2.17;;;;;;;6.67;77.11;99377.66;5075553;28;20048;-72
2020/12/14 00:32:00;;;;;;;6.13;2.03;;;;;;;6.73;77.72;99381.75;5075076;28;20110;-72
2020/12/14 00:34:26;;;;;;;6.75;1.92;;;;;;;6.77;77.95;99378.81;5075378;28;20133;-71
2020/12/14 00:37:06;;;;;;;8.82;2.35;;;;;;;6.78;77.97;99371.72;5075497;28;20048;-73
2020/12/14 00:39:33;;;;;;;5.63;1.77;;;;;;;6.80;78.25;99372.50;5057771;28;20044;-72
2020/12/14 00:41:59;;;;;;;4.18;1.80;;;;;;;6.75;78.32;99359.50;5074018;28;20087;-73
2020/12/14 00:44:25;;;;;;;5.40;1.95;;;;;;;6.79;78.39;99361.03;5073939;28;20045;-70
2020/12/14 00:46:52;;;;;;;3.55;1.60;;;;;;;6.70;78.61;99334.19;5075432;28;20060;-73
2020/12/14 00:49:19;;;;;;;5.20;1.92;;;;;;;6.75;78.95;99348.91;5075305;28;20132;-73
2020/12/14 00:51:45;;;;;;;6.03;2.33;;;;;;;6.74;79.13;99343.66;5074674;28;20055;-71
2020/12/14 00:54:11;;;;;;;6.45;1.80;;;;;;;6.71;79.22;99351.81;5075111;28;20063;-75
2020/12/14 00:56:38;;;;;;;8.27;1.77;;;;;;;6.65;79.33;99347.75;5075265;28;20055;-71
2020/12/14 00:59:04;;;;;;;5.32;1.30;;;;;;;6.63;79.49;99339.88;5074835;28;20055;-75
2020/12/14 01:01:31;;;;;;;4.88;1.75;;;;;;;6.56;79.26;99343.81;5075529;28;20057;-75
2020/12/14 01:03:58;;;;;;;9.85;2.22;;;;;;;6.49;79.45;99331.84;5057653;28;20124;-75
2020/12/14 01:06:24;;;;;;;4.60;1.80;;;;;;;6.50;79.78;99346.81;5074931;28;20056;-72
2020/12/14 01:08:50;;;;;;;9.13;2.40;;;;;;;6.47;80.14;99344.31;5073741;28;20044;-72
2020/12/14 01:11:16;;;;;;;6.95;2.00;;;;;;;6.43;80.63;99335.69;5075076;28;20048;-74
2020/12/14 01:13:45;;;;;;;2.50;1.73;;;;;;;6.47;80.35;99337.22;5074843;28;20056;-74
2020/12/14 01:16:12;;;;;;;5.93;1.90;;;;;;;6.43;80.71;99338.34;5075225;28;20079;-74
2020/12/14 01:18:39;;;;;;;5.40;1.85;;;;;;;6.47;81.08;99337.22;5075169;28;20055;-74
2020/12/14 01:21:06;;;;;;;5.15;1.73;;;;;;;6.45;81.21;99325.88;5075183;28;20056;-73
2020/12/14 01:23:32;;;;;;;3.10;1.63;;;;;;;6.44;81.46;99328.59;5075045;28;20052;-73
2020/12/14 01:25:58;;;;;;;4.57;1.60;;;;;;;6.40;81.47;99327.94;5075228;28;20053;-72
2020/12/14 01:28:26;;;;;;;3.78;2.20;;;;;;;6.36;81.81;99318.44;5057717;28;20052;-70
2020/12/14 01:30:52;;;;;;;7.50;2.08;;;;;;;6.42;82.22;99319.91;5074968;28;20048;-72
2020/12/14 01:33:20;;;;;;;4.15;1.38;;;;;;;6.44;82.14;99333.91;5073711;28;20089;-75
2020/12/14 01:35:46;;;;;;;4.53;1.70;;;;;;;6.39;81.93;99319.09;5074632;28;20328;-72
2020/12/14 01:38:12;;;;;;;7.55;2.38;;;;;;;6.44;81.89;99333.91;5074443;28;20392;-74
2020/12/14 01:40:38;;;;;;;6.78;1.60;;;;;;;6.44;82.23;99334.78;5074506;28;20109;-74
2020/12/14 01:43:04;;;;;;;5.32;1.65;;;;;;;6.42;82.35;99325.19;5074581;28;20067;-71
2020/12/14 01:45:30;;;;;;;7.22;1.92;;;;;;;6.44;82.54;99345.38;5073813;28;20048;-72
2020/12/14 01:48:01;;;;;;;5.15;1.70;;;;;;;6.44;82.88;99339.22;5074571;28;20052;-72
2020/12/14 01:50:28;;;;;;;5.30;1.70;;;;;;;6.42;82.85;99341.09;5074491;28;20048;-73
2020/12/14 01:52:58;;;;;;;6.07;1.95;;;;;;;6.42;82.74;99328.69;5074643;28;20055;-74
2020/12/14 01:55:29;;;;;;;5.38;1.70;;;;;;;6.37;82.63;99318.34;5074304;28;20063;-75
2020/12/14 01:57:55;;;;;;;4.22;1.90;;;;;;;6.50;83.09;99333.56;5074461;28;20426;-72
2020/12/14 02:00:21;;;;;;;4.15;1.55;;;;;;;6.34;82.92;99322.97;5074368;28;20106;-76
2020/12/14 02:02:47;;;;;;;4.70;1.75;;;;;;;6.47;83.12;99350.50;5074479;28;20057;-72
2020/12/14 02:05:14;;;;;;;4.43;1.90;;;;;;;6.46;82.90;99326.72;5077244;28;20048;-71
2020/12/14 02:07:40;;;;;;;6.07;1.55;;;;;;;6.43;82.97;99321.59;5077046;28;20110;-73
2020/12/14 02:10:06;;;;;;;5.82;1.80;;;;;;;6.41;83.23;99315.50;5078127;28;20060;-70
2020/12/14 02:12:32;;;;;;;3.65;1.70;;;;;;;6.40;83.53;99309.38;5077265;28;20484;-74
2020/12/14 02:14:59;;;;;;;4.28;1.70;;;;;;;6.41;83.06;99304.91;5078189;28;20419;-75
2020/12/14 02:17:26;;;;;;;4.85;1.67;;;;;;;6.43;83.37;99314.47;5078467;28;20056;-73
2020/12/14 02:19:54;;;;;;;4.60;1.90;;;;;;;6.41;83.62;99311.06;5077950;28;20048;-71
2020/12/14 02:22:21;;;;;;;4.03;2.15;;;;;;;6.36;83.59;99300.75;5078049;28;20055;-73
2020/12/14 02:24:59;;;;;;;5.97;1.95;;;;;;;6.41;83.72;99313.72;5076710;28;20103;-75
2020/12/14 02:27:28;;;;;;;3.08;1.58;;;;;;;6.38;83.80;99308.63;5078358;28;20064;-72
2020/12/14 02:29:56;;;;;;;4.10;2.00;;;;;;;6.38;84.19;99304.16;5077334;28;20113;-73
2020/12/14 02:32:25;;;;;;;3.72;1.85;;;;;;;6.40;83.90;99288.16;5078629;28;20053;-75
2020/12/14 02:34:52;;;;;;;3.90;1.45;;;;;;;6.40;84.33;99293.47;5078440;28;20407;-74
2020/12/14 02:37:21;;;;;;;6.30;1.70;;;;;;;6.47;84.32;99308.06;5078476;28;20052;-72
2020/12/14 02:39:47;;;;;;;4.38;1.45;;;;;;;6.44;84.72;99318.88;5077288;28;20098;-71
2020/12/14 02:42:18;;;;;;;5.15;2.00;;;;;;;6.43;84.88;99314.47;5078202;28;20049;-74
2020/12/14 02:44:46;;;;;;;4.97;1.40;;;;;;;6.46;84.70;99326.72;5076351;28;20151;-72
2020/12/14 02:47:13;;;;;;;3.88;1.60;;;;;;;6.43;84.84;99317.13;5076161;28;20052;-74
2020/12/14 02:49:40;;;;;;;4.45;1.40;;;;;;;6.42;85.01;99318.09;5077533;28;20334;-74
2020/12/14 02:52:08;;;;;;;5.32;1.70;;;;;;;6.37;84.97;99299.78;5077490;28;20059;-73
2020/12/14 02:54:37;;;;;;;4.32;1.80;;;;;;;6.44;84.64;99315.34;5076198;28;20061;-72
2020/12/14 02:57:03;;;;;;;3.13;1.63;;;;;;;6.48;84.71;99312.44;5077302;28;20393;-74
2020/12/14 02:59:30;;;;;;;3.72;1.67;;;;;;;6.49;84.94;99315.94;5075975;28;20426;-75
2020/12/14 03:01:57;;;;;;;2.22;1.35;;;;;;;6.43;84.84;99311.84;5077206;28;20444;-71
2020/12/14 03:04:24;;;;;;;3.80;1.80;;;;;;;6.36;84.76;99286.63;5076992;28;20331;-70
2020/12/14 03:06:50;;;;;;;4.75;1.27;;;;;;;6.42;84.67;99293.38;5077150;28;20133;-71
2020/12/14 03:09:19;;;;;;;5.05;1.85;;;;;;;6.44;84.79;99296.78;5076773;28;20053;-75
2020/12/14 03:11:46;;;;;;;2.60;1.48;;;;;;;6.41;84.72;99296.97;5077296;28;20092;-73
2020/12/14 03:14:13;;;;;;;4.03;2.03;;;;;;;6.44;84.77;99296.78;5076724;28;20105;-74
2020/12/14 03:16:48;;;;;;;4.13;1.55;;;;;;;6.46;85.32;99306.38;5076893;28;20056;-71
2020/12/14 03:19:14;;;;;;;2.40;1.67;;;;;;;6.46;84.84;99309.03;5076620;28;20106;-75
2020/12/14 03:21:41;;;;;;;4.10;1.60;;;;;;;6.46;85.18;99316.97;5076017;28;20122;-74
2020/12/14 03:24:07;;;;;;;2.10;1.60;;;;;;;6.45;85.28;99311.75;5076948;28;20052;-73
2020/12/14 03:26:34;;;;;;;3.08;1.80;;;;;;;6.46;85.36;99309.03;5076414;28;20044;-74
2020/12/14 03:29:00;;;;;;;4.25;1.58;;;;;;;6.32;85.59;99278.00;5075395;28;20048;-75
2020/12/14 03:31:27;;;;;;;2.83;1.70;;;;;;;6.49;85.61;99292.09;5076581;28;20048;-74
2020/12/14 03:33:54;;;;;;;2.20;1.67;;;;;;;6.59;85.32;99303.84;5076691;28;20044;-76
2020/12/14 03:36:21;;;;;;;3.28;1.42;;;;;;;6.55;85.16;99285.56;5076432;28;20331;-74
2020/12/14 03:38:49;;;;;;;4.55;1.50;;;;;;;6.69;85.17;99298.03;5076095;28;20058;-74
2020/12/14 03:41:16;;;;;;;2.75;1.83;;;;;;;6.63;85.49;99294.78;5076485;28;20053;-73
2020/12/14 03:43:42;;;;;;;5.18;1.40;;;;;;;6.66;85.63;99299.91;5075344;28;20488;-73
2020/12/14 03:46:22;;;;;;;2.22;1.33;;;;;;;6.64;85.82;99295.63;5076353;28;20060;-73
2020/12/14 03:48:53;;;;;;;2.20;1.42;;;;;;;6.63;86.02;99304.53;5075292;28;20101;-74
2020/12/14 03:51:20;;;;;;;4.13;1.50;;;;;;;6.71;86.26;99299.63;5074964;28;20442;-73
2020/12/14 03:53:46;;;;;;;4.07;1.70;;;;;;;6.70;86.29;99302.38;5076041;28;20397;-75
2020/12/14 03:56:12;;;;;;;1.95;1.33;;;;;;;6.68;86.90;99304.25;5075740;28;20105;-72
2020/12/14 03:58:38;;;;;;;2.15;1.40;;;;;;;6.68;87.23;99301.59;5076193;28;20071;-73
2020/12/14 04:01:05;;;;;;;2.60;1.50;;;;;;;6.70;87.22;99299.72;5076146;28;20389;-72
2020/12/14 04:03:31;;;;;;;2.75;1.25;;;;;;;6.71;87.49;99283.69;5075954;28;20059;-76
2020/12/14 04:05:57;;;;;;;2.42;1.38;;;;;;;6.78;87.47;99285.06;5076164;28;20103;-75
2020/12/14 04:08:24;;;;;;;2.67;1.35;;;;;;;6.81;87.33;99294.63;5076037;28;20052;-73
2020/12/14 04:10:50;;;;;;;2.05;1.05;;;;;;;6.79;87.51;99276.16;5076096;28;20105;-74
2020/12/14 04:13:16;;;;;;;1.50;1.17;;;;;;;6.78;87.46;99285.06;5075946;28;20049;-74
2020/12/14 04:15:42;;;;;;;2.55;1.65;;;;;;;6.81;87.58;99284.00;5075737;28;20550;-73
2020/12/14 04:18:08;;;;;;;3.80;1.33;;;;;;;6.83;87.39;99281.28;5075556;28;20056;-72
2020/12/14 04:20:35;;;;;;;1.25;1.00;;;;;;;6.91;86.98;99279.00;5075577;28;20056;-72
2020/12/14 04:23:01;;;;;;;3.05;1.30;;;;;;;6.87;86.97;99270.38;5075384;28;20045;-72
2020/12/14 04:25:27;;;;;;;2.03;0.95;;;;;;;6.91;86.99;99268.41;5075452;28;20056;-74
2020/12/14 04:27:58;;;;;;;2.72;1.45;;;;;;;6.90;87.14;99272.00;5074671;28;20052;-72
2020/12/14 04:30:25;;;;;;;1.40;1.10;;;;;;;6.91;87.09;99277.22;5074406;28;20053;-73
2020/12/14 04:32:52;;;;;;;1.45;1.08;;;;;;;6.89;87.36;99270.31;5075421;28;20056;-70
2020/12/14 04:35:18;;;;;;;2.17;1.30;;;;;;;6.91;87.16;99274.56;5075511;28;20048;-72
2020/12/14 04:37:44;;;;;;;3.85;1.20;;;;;;;6.90;87.62;99277.31;5074072;28;20106;-75
2020/12/14 04:40:11;;;;;;;2.05;1.30;;;;;;;6.90;87.49;99272.88;5074629;28;20056;-72
2020/12/14 04:42:37;;;;;;;3.20;1.33;;;;;;;6.90;87.64;99272.88;5075396;28;20075;-75
2020/12/14 04:45:04;;;;;;;1.30;1.20;;;;;;;6.80;87.46;99250.47;5075462;28;20044;-70
2020/12/14 04:47:30;;;;;;;1.85;1.10;;;;;;;6.97;87.65;99281.31;5074131;28;20052;-74
2020/12/14 04:49:57;;;;;;;1.73;1.15;;;;;;;6.91;87.55;99261.31;5074281;28;20049;-73
2020/12/14 04:52:26;;;;;;;2.20;1.15;;;;;;;6.97;87.91;99262.72;5074932;28;20056;-74
2020/12/14 04:54:53;;;;;;;1.50;1.10;;;;;;;6.95;87.86;99248.72;5074837;28;20052;-73
2020/12/14 04:57:21;;;;;;;1.75;1.17;;;;;;;6.94;87.66;99244.34;5074874;28;20053;-74
2020/12/14 04:59:50;;;;;;;2.90;1.02;;;;;;;7.09;87.70;99255.84;5075089;28;20052;-73
2020/12/14 05:02:17;;;;;;;1.75;1.00;;;;;;;7.11;87.43;99248.63;5073505;28;20080;-73
2020/12/14 05:04:44;;;;;;;4.22;1.20;;;;;;;7.15;87.73;99246.66;5074819;28;20139;-74
2020/12/14 05:07:15;;;;;;;6.20;1.05;;;;;;;7.27;87.61;99259.16;5074901;28;20484;-74
2020/12/14 05:09:59;;;;;;;1.50;0.80;;;;;;;7.33;87.44;99276.50;5074737;28;20056;-74
2020/12/14 05:12:26;;;;;;;1.95;1.05;;;;;;;7.38;87.16;99271.75;5075219;28;20342;-70
2020/12/14 05:14:52;;;;;;;1.27;1.05;;;;;;;7.37;87.36;99262.09;5074847;28;20105;-72
2020/12/14 05:17:24;;;;;;;1.13;0.90;;;;;;;7.43;86.91;99256.41;5074516;28;20059;-73
2020/12/14 05:19:51;;;;;;;2.28;1.00;;;;;;;7.41;87.20;99260.94;5074764;28;20045;-73
2020/12/14 05:22:18;;;;;;;1.23;1.00;;;;;;;7.41;87.23;99263.59;5074825;28;20067;-72
2020/12/14 05:24:51;;;;;;;2.22;1.42;;;;;;;7.42;87.04;99272.44;5074852;28;20117;-72
2020/12/14 05:27:32;;;;;;;0.90;0.73;;;;;;;7.29;87.29;99241.34;5075051;28;20154;-70
2020/12/14 05:29:59;;;;;;;0.70;0.70;;;;;;;7.48;86.75;99272.88;5072257;28;20434;-72
2020/12/14 05:32:26;;;;;;;1.15;0.70;;;;;;;7.52;87.24;99278.03;5074456;28;20060;-70
2020/12/14 05:34:52;;;;;;;4.25;0.93;;;;;;;7.39;87.73;99270.81;5074736;28;20453;-74
2020/12/14 05:37:18;;;;;;;1.08;0.93;;;;;;;7.39;87.30;99270.81;5057337;28;20090;-74
2020/12/14 05:39:45;;;;;;;1.10;0.73;;;;;;;7.36;87.69;99286.06;5078843;28;20373;-73
2020/12/14 05:42:19;;;;;;;1.48;0.88;;;;;;;7.31;87.49;99278.41;5069210;28;20060;-74
2020/12/14 05:44:48;;;;;;;1.73;1.20;;;;;;;7.28;87.09;99276.78;5058610;28;20075;-73
2020/12/14 05:47:24;;;;;;;1.40;1.00;;;;;;;7.32;87.21;99288.91;5058506;28;20135;-72
2020/12/14 05:49:51;;;;;;;1.20;1.10;;;;;;;7.30;87.08;99290.81;5058251;28;20427;-73
2020/12/14 05:52:19;;;;;;;0.85;0.75;;;;;;;7.34;86.51;99289.69;5058469;28;20053;-72
2020/12/14 05:54:51;;;;;;;0.82;0.77;;;;;;;7.33;86.77;99289.78;5058750;28;20071;-73
2020/12/14 05:57:32;;;;;;;2.28;1.00;;;;;;;7.36;87.03;99291.38;5058593;28;20053;-73
2020/12/14 06:00:08;;;;;;;;;;;;;;;7.38;87.67;99287.69;5058783;28;20079;-73
2020/12/14 06:02:35;;;;;;;1.00;0.90;;;;;;;7.30;89.04;99300.59;5057422;28;19940;-71
2020/12/14 06:05:06;;;;;;;2.97;0.90;;;;;;;7.22;90.09;99286.91;5078130;28;20493;-72
2020/12/14 06:07:34;;;;;;;2.28;1.20;;;;;;;7.16;90.93;99281.06;5078226;28;20113;-72
2020/12/14 06:10:06;;;;;;;1.13;0.90;;;;;;;7.15;90.99;99274.03;5077864;28;20102;-73
2020/12/14 06:12:34;;;;;;;1.38;1.02;;;;;;;7.12;91.18;99284.84;5077393;28;20052;-72
2020/12/14 06:15:04;;;;;;;0.98;0.90;;;;;;;7.15;91.16;99291.75;5077595;28;20053;-74
2020/12/14 06:17:31;;;;;;;0.77;0.77;;;;;;;7.17;91.37;99293.38;5077902;28;20105;-79
2020/12/14 06:20:19;;;;;;;1.58;0.77;;;;;;;7.19;91.15;99298.56;5076331;28;20044;-75
2020/12/14 06:22:49;;;;;;;1.02;0.93;;;;;;;7.26;90.70;99289.31;5075728;28;20063;-75
2020/12/14 06:25:16;;;;;;;1.05;0.85;;;;;;;7.32;91.31;99304.84;5077549;28;20044;-71
2020/12/14 06:27:43;;;;;;;1.38;1.00;;;;;;;7.36;92.05;99304.66;5075727;28;20118;-74
2020/12/14 06:30:28;;;;;;;2.45;1.20;;;;;;;7.39;91.97;99315.94;5077083;28;20062;-76
2020/12/14 06:33:08;;;;;;;3.22;1.10;;;;;;;7.39;93.11;99312.44;5076664;28;20051;-70
2020/12/14 06:35:47;;;;;;;3.03;1.20;;;;;;;7.38;93.94;99308.06;5076988;28;20061;-74
2020/12/14 06:38:38;;;;;;;2.33;1.10;;;;;;;7.34;94.32;99299.44;5077247;28;20056;-73
2020/12/14 06:41:21;;;;;;;1.85;1.17;;;;;;;7.32;94.69;99298.69;5074587;28;20121;-80
2020/12/14 06:43:50;;;;;;;1.52;1.02;;;;;;;7.28;95.18;99298.03;5074207;28;20384;-73
2020/12/14 06:46:26;;;;;;;1.20;1.05;;;;;;;7.36;94.29;99288.72;5072183;28;20068;-71
2020/12/14 06:48:54;;;;;;;1.38;1.00;;;;;;;7.36;94.40;99278.13;5058690;28;20049;-76
2020/12/14 06:51:21;;;;;;;1.45;1.05;;;;;;;7.38;94.45;99287.69;5075306;28;20102;-70
2020/12/14 06:53:53;;;;;;;1.05;0.80;;;;;;;7.41;94.25;99282.19;5076857;28;20052;-73
2020/12/14 06:56:28;;;;;;;1.88;0.80;;;;;;;7.44;94.04;99287.31;5074488;28;20048;-73
2020/12/14 06:58:55;;;;;;;1.05;0.75;;;;;;;7.46;93.77;99285.41;5076136;28;20837;-73
2020/12/14 07:01:34;;;;;;;2.85;0.70;;;;;;;7.55;93.84;99293.75;5075736;28;20097;-72
2020/12/14 07:04:06;;;;;;;1.00;0.80;;;;;;;7.57;93.03;99302.50;5073841;28;20055;-76
2020/12/14 07:06:33;;;;;;;0.60;0.60;;;;;;;7.57;92.79;99282.09;5076374;28;20524;-75
2020/12/14 07:09:29;;;;;;;2.38;0.70;;;;;;;7.68;93.41;99293.84;5073993;28;20045;-74
2020/12/14 07:12:15;;;;;;;4.32;0.70;;;;;;;7.70;93.96;99299.91;5075679;28;20052;-70
2020/12/14 07:14:50;;;;;;;2.22;0.70;;;;;;;7.71;93.93;99299.81;5073712;28;20044;-70
2020/12/14 07:17:27;;;;;;;0.82;0.47;;;;;;;7.68;94.38;99300.00;5076649;28;20059;-70
2020/12/14 07:19:58;;;;;;;1.77;0.63;;;;;;;7.69;94.65;99292.88;5076214;28;20041;-71
2020/12/14 07:22:47;;;;;;;1.05;0.50;;;;;;;7.69;94.52;99301.69;5075692;28;20102;-71
2020/12/14 07:25:21;;;;;;;1.17;0.52;;;;;;;7.71;94.63;99289.19;5074890;28;20048;-70
2020/12/14 07:27:47;;;;;;;3.30;0.60;;;;;;;7.76;94.08;99291.56;5073814;28;20052;-70
2020/12/14 07:30:14;;;;;;;1.33;0.60;;;;;;;7.80;93.88;99295.69;5074230;28;20064;-71
2020/12/14 07:32:40;;;;;;;0.65;0.45;;;;;;;7.83;93.58;99302.63;5075567;28;20040;-70
2020/12/14 07:35:08;;;;;;;0.40;0.40;;;;;;;7.79;94.03;99301.97;5075727;28;20342;-70
2020/12/14 07:37:35;;;;;;;0.77;0.60;;;;;;;7.80;93.99;99293.03;5076317;28;20056;-70
2020/12/14 07:40:06;;;;;;;0.75;0.50;;;;;;;7.80;93.95;99295.69;5072105;28;20044;-70
2020/12/14 07:42:34;;;;;;;0.57;0.43;;;;;;;7.84;93.62;99305.19;5075757;28;20052;-70
2020/12/14 07:45:12;;;;;;;1.27;0.40;;;;;;;7.85;93.73;99322.84;5074286;28;20090;-71
2020/12/14 07:47:40;;;;;;;0.30;0.30;;;;;;;7.83;93.10;99314.13;5074961;28;20048;-71
2020/12/14 07:50:16;;;;;;;0.40;0.40;;;;;;;7.88;93.52;99327.09;5075000;28;20053;-70
2020/12/14 07:52:43;;;;;;;0.95;0.40;;;;;;;8.01;92.81;99343.13;5073767;28;20353;-70
2020/12/14 07:55:11;;;;;;;1.00;0.60;;;;;;;7.86;92.92;99331.69;5072465;28;20045;-70
2020/12/14 07:57:40;;;;;;;0.70;0.50;;;;;;;8.04;92.70;99369.50;5075192;28;20044;-70
2020/12/14 08:00:11;;;;;;;0.65;0.40;;;;;;;8.02;92.53;99376.72;5069851;28;20052;-71
2020/12/14 08:02:39;;;;;;;0.60;0.50;;;;;;;8.02;92.68;99374.91;5073093;28;20052;-70
2020/12/14 08:05:07;;;;;;;1.25;0.57;;;;;;;8.05;92.34;99389.81;5069777;28;20052;-70
2020/12/14 08:07:50;;;;;;;3.53;0.55;;;;;;;8.02;92.73;99390.03;5074797;28;20055;-70
2020/12/14 08:10:33;;;;;;;0.40;0.35;;;;;;;8.11;91.93;99393.88;5073985;28;20045;-71
2020/12/14 08:13:02;;;;;;;0.98;0.60;;;;;;;8.06;92.44;99401.31;5074007;28;20060;-72
2020/12/14 08:15:30;;;;;;;0.60;0.40;;;;;;;8.05;92.42;99387.16;5073217;28;21572;-71
2020/12/14 08:17:59;;;;;;;1.35;0.60;;;;;;;8.02;92.37;99392.69;5075373;28;20063;-71
2020/12/14 08:20:31;;;;;;;0.75;0.50;;;;;;;8.08;92.08;99389.63;5072694;28;20044;-71
2020/12/14 08:22:59;;;;;;;1.50;0.80;;;;;;;8.10;91.89;99400.16;5075510;28;20052;-72
2020/12/14 08:25:27;;;;;;;1.30;0.60;;;;;;;8.10;92.10;99405.47;5072074;28;20040;-71
2020/12/14 08:27:57;;;;;;;0.70;0.55;;;;;;;8.20;92.04;99406.59;5075167;28;20056;-71
2020/12/14 08:30:25;;;;;;;0.50;0.30;;;;;;;8.17;92.11;99393.50;5073511;28;20041;-71
2020/12/14 08:33:11;;;;;;;0.90;0.70;;;;;;;8.21;92.27;99403.00;5075176;28;20048;-72
2020/12/14 08:35:42;;;;;;;1.42;0.80;;;;;;;8.20;92.53;99403.94;5074196;28;20045;-70
2020/12/14 08:38:11;;;;;;;1.15;0.73;;;;;;;8.24;92.25;99405.44;5051906;28;20079;-71
2020/12/14 08:40:39;;;;;;;0.63;0.60;;;;;;;8.21;92.59;99408.31;5075191;28;20048;-74
2020/12/14 08:43:16;;;;;;;0.80;0.77;;;;;;;8.26;92.24;99410.66;5072251;28;20091;-74
2020/12/14 08:46:16;;;;;;;2.90;0.88;;;;;;;8.31;92.29;99407.72;5075023;28;20048;-71
2020/12/14 08:48:48;;;;;;;1.23;0.80;;;;;;;8.32;92.36;99402.31;5073143;28;20059;-69
2020/12/14 08:51:20;;;;;;;2.45;0.77;;;;;;;8.35;92.07;99403.91;5075001;28;20067;-73
2020/12/14 08:53:49;;;;;;;3.00;0.90;;;;;;;8.39;92.05;99406.28;5072506;28;20056;-71
2020/12/14 08:56:20;;;;;;;1.65;1.08;;;;;;;8.38;91.89;99414.34;5074577;28;20139;-71
2020/12/14 08:58:50;;;;;;;1.95;0.70;;;;;;;8.28;91.55;99377.72;5072373;28;20110;-75
2020/12/14 09:01:19;;;;;;;2.50;0.98;;;;;;;8.41;91.56;99404.38;5074767;28;20059;-73
2020/12/14 09:03:54;;;;;;;1.50;0.80;;;;;;;8.45;91.69;99421.00;5074757;28;20055;-71
2020/12/14 09:06:25;;;;;;;1.10;0.90;;;;;;;8.50;91.07;99418.88;5073871;28;20044;-72
2020/12/14 09:09:13;;;;;;;1.60;1.03;;;;;;;8.49;91.35;99411.84;5071637;28;20056;-71
2020/12/14 09:11:41;;;;;;;0.95;0.85;;;;;;;8.50;91.19;99412.72;5073316;28;20055;-71
2020/12/14 09:14:08;;;;;;;1.48;1.00;;;;;;;8.42;91.46;99418.53;5075907;28;20044;-74
2020/12/14 09:16:36;;;;;;;2.38;0.85;;;;;;;8.43;91.25;99429.06;5081404;28;20048;-72
2020/12/14 09:19:03;;;;;;;1.65;0.98;;;;;;;8.45;91.15;99418.34;5081042;28;20106;-73
2020/12/14 09:21:31;;;;;;;1.60;0.90;;;;;;;8.52;90.91;99443.63;5081019;28;20055;-71
2020/12/14 09:24:14;;;;;;;2.05;1.10;;;;;;;8.52;92.15;99433.00;5081448;28;20100;-72
2020/12/14 09:26:43;;;;;;;6.13;1.38;;;;;;;8.50;92.65;99434.84;5081415;28;20059;-71
2020/12/14 09:29:10;;;;;;;2.75;1.30;;;;;;;8.42;93.17;99453.09;5078676;28;20102;-72
2020/12/14 09:31:38;;;;;;;3.38;1.25;;;;;;;8.41;93.67;99436.28;5080795;28;20346;-72
2020/12/14 09:34:04;;;;;;;4.18;1.17;;;;;;;8.37;93.87;99434.78;5078152;28;20080;-72
2020/12/14 09:36:30;;;;;;;3.67;1.25;;;;;;;8.42;94.95;99445.97;5080992;28;20044;-74
2020/12/14 09:38:56;;;;;;;2.97;1.13;;;;;;;8.46;94.64;99449.31;5081330;28;20357;-71
2020/12/14 09:41:29;;;;;;;4.15;1.30;;;;;;;8.52;95.05;99464.03;5080528;28;20497;-71
2020/12/14 09:43:55;;;;;;;5.38;1.25;;;;;;;8.43;95.31;99455.66;5079290;28;20040;-74
2020/12/14 09:46:27;;;;;;;4.20;1.40;;;;;;;8.51;95.68;99478.25;5080131;28;20048;-73
2020/12/14 09:48:55;;;;;;;3.13;1.60;;;;;;;8.49;96.39;99477.50;5061435;28;20434;-73
2020/12/14 09:51:22;;;;;;;2.08;1.58;;;;;;;8.45;96.03;99478.63;5080860;28;20098;-73
2020/12/14 09:53:49;;;;;;;3.78;1.58;;;;;;;8.45;96.21;99484.84;5079807;28;20060;-72
2020/12/14 09:56:16;;;;;;;3.55;1.77;;;;;;;8.46;96.56;99483.88;5080825;28;20045;-72
2020/12/14 09:58:45;;;;;;;5.00;1.75;;;;;;;8.49;96.50;99490.81;5080350;28;20452;-73
2020/12/14 10:01:12;;;;;;;2.20;1.80;;;;;;;8.47;97.00;99488.25;5078558;28;20052;-73
2020/12/14 10:03:39;;;;;;;1.77;1.67;;;;;;;8.51;96.78;99463.16;5080566;28;20155;-73
2020/12/14 10:06:05;;;;;;;2.22;1.80;;;;;;;8.60;96.67;99476.84;5080315;28;20435;-73
2020/12/14 10:08:31;;;;;;;2.78;1.83;;;;;;;8.56;96.33;99474.38;5078499;28;20040;-72
2020/12/14 10:10:57;;;;;;;4.57;1.73;;;;;;;8.54;96.50;99464.78;5078630;28;20113;-74
2020/12/14 10:13:24;;;;;;;3.03;1.67;;;;;;;8.64;96.16;99473.03;5080024;28;20098;-73
2020/12/14 10:15:51;;;;;;;3.83;1.90;;;;;;;8.69;95.96;99474.47;5077529;28;20127;-74
2020/12/14 10:18:18;;;;;;;3.88;1.55;;;;;;;8.63;96.37;99461.56;5080721;28;20438;-74
2020/12/14 10:20:45;;;;;;;2.88;1.50;;;;;;;8.72;95.63;99467.22;5080845;28;20070;-71
2020/12/14 10:23:13;;;;;;;4.18;1.90;;;;;;;8.75;96.04;99467.88;5077810;28;20087;-74
2020/12/14 10:25:39;;;;;;;4.38;2.05;;;;;;;8.75;95.85;99462.56;5077046;28;20045;-72
2020/12/14 10:28:06;;;;;;;10.18;2.33;;;;;;;8.56;96.31;99445.13;5077447;28;20062;-72
2020/12/14 10:30:33;;;;;;;3.38;1.85;;;;;;;8.76;95.96;99471.41;5076927;28;20489;-71
2020/12/14 10:33:13;;;;;;;9.75;3.72;;;;;;;8.73;95.66;99451.16;5074935;28;20060;-73
2020/12/14 10:35:39;;;;;;;5.72;1.60;;;;;;;8.79;95.98;99464.06;5059537;28;20041;-72
2020/12/14 10:38:05;;;;;;;4.05;1.50;;;;;;;8.81;95.92;99459.50;5077119;28;20052;-73
2020/12/14 10:40:32;;;;;;;6.03;1.80;;;;;;;8.90;94.88;99468.69;5058847;28;20102;-72
2020/12/14 10:43:00;;;;;;;6.00;1.90;;;;;;;8.92;95.36;99468.56;5075855;28;20060;-72
2020/12/14 10:45:26;;;;;;;2.50;1.40;;;;;;;8.96;94.66;99452.34;5076064;28;20130;-71
2020/12/14 10:47:53;;;;;;;2.10;1.20;;;;;;;9.04;94.41;99462.47;5072837;28;20143;-71
2020/12/14 10:50:20;;;;;;;4.05;1.80;;;;;;;9.03;94.44;99471.41;5075685;28;20044;-72
2020/12/14 10:52:46;;;;;;;3.15;1.50;;;;;;;9.02;94.50;99456.38;5075720;28;20056;-71
2020/12/14 10:55:13;;;;;;;2.50;1.33;;;;;;;9.06;94.34;99457.88;5072867;28;20056;-71
2020/12/14 10:57:39;;;;;;;3.92;1.50;;;;;;;9.18;94.30;99460.69;5075108;28;20048;-71
2020/12/14 11:00:06;;;;;;;3.97;1.23;;;;;;;9.27;93.65;99454.75;5076329;28;20044;-71
2020/12/14 11:02:35;;;;;;;2.60;1.20;;;;;;;9.29;93.07;99458.16;5078045;28;20052;-75
2020/12/14 11:05:04;;;;;;;2.55;1.13;;;;;;;9.31;93.51;99452.75;5079254;28;20056;-74
2020/12/14 11:07:31;;;;;;;6.18;1.50;;;;;;;9.18;93.31;99434.06;5074754;28;20177;-74
2020/12/14 11:10:03;;;;;;;4.22;1.30;;;;;;;9.27;93.15;99440.59;5077328;28;20156;-74
2020/12/14 11:12:30;;;;;;;1.83;0.90;;;;;;;9.38;93.28;99452.22;5079926;28;20102;-74
2020/12/14 11:14:56;;;;;;;3.08;1.38;;;;;;;9.42;92.26;99439.53;5074938;28;20052;-72
2020/12/14 11:17:22;;;;;;;2.63;1.27;;;;;;;9.45;92.24;99438.47;5076278;28;20049;-73
2020/12/14 11:19:48;;;;;;;2.05;1.17;;;;;;;9.44;92.32;99439.44;5076905;28;20127;-74
2020/12/14 11:22:15;;;;;;;2.95;1.08;;;;;;;9.51;92.42;99440.72;5075994;28;20056;-74
2020/12/14 11:24:41;;;;;;;3.20;1.10;;;;;;;9.47;91.84;99437.41;5076120;28;20067;-74
2020/12/14 11:27:14;;;;;;;3.53;1.33;;;;;;;9.55;92.11;99422.72;5075191;28;20441;-74
2020/12/14 11:29:40;;;;;;;3.90;1.20;;;;;;;9.61;92.61;99431.16;5076226;28;20071;-74
2020/12/14 11:32:06;;;;;;;2.83;1.30;;;;;;;9.68;91.11;99425.38;5075473;28;20048;-74
2020/12/14 11:34:33;;;;;;;1.63;1.10;;;;;;;9.74;90.90;99423.16;5075992;28;20075;-74
2020/12/14 11:37:02;;;;;;;2.40;1.00;;;;;;;9.73;90.84;99423.25;5076175;28;20051;-78
2020/12/14 11:39:28;;;;;;;2.58;1.33;;;;;;;9.77;90.92;99430.94;5076108;28;20052;-73
2020/12/14 11:41:54;;;;;;;1.35;1.10;;;;;;;9.62;90.95;99406.22;5074746;28;20101;-73
2020/12/14 11:44:20;;;;;;;2.75;1.38;;;;;;;9.76;91.33;99420.41;5071558;28;20135;-75
2020/12/14 11:46:50;;;;;;;5.00;1.10;;;;;;;9.89;89.68;99434.56;5079277;28;20053;-75
2020/12/14 11:49:18;;;;;;;4.78;1.67;;;;;;;9.88;90.60;99432.88;5076879;28;20094;-74